Time;durP1;ratioP1;P1;durP2;ratioP2;P2;SDS_P1;SDS_P2;PMS_P1;PMS_P2;Temp;Humidity;BMP_temperature;BMP_pressure;BME280_temperature;BME280_humidity;BME280_pressure;Samples;Min_cycle;Max_cycle;Signal;HPM_P1;HPM_P2
2023/11/23 00:02:17;;;;;;;0.80;0.70;;;18.30;59.20;;;;;;5020823;28;20535;-66
2023/11/23 00:04:42;;;;;;;1.35;0.80;;;18.30;59.20;;;;;;5019357;28;20029;-66
2023/11/23 00:07:08;;;;;;;0.73;0.70;;;18.20;59.20;;;;;;5021145;28;20109;-67
2023/11/23 00:09:33;;;;;;;1.20;0.80;;;18.30;59.20;;;;;;5018088;28;20026;-67
2023/11/23 00:11:59;;;;;;;0.90;0.70;;;18.20;59.10;;;;;;5020946;28;20053;-67
2023/11/23 00:14:25;;;;;;;1.10;0.80;;;18.20;59.20;;;;;;5021130;28;20053;-67
2023/11/23 00:16:56;;;;;;;1.60;0.80;;;18.20;59.10;;;;;;5015087;28;20025;-66
2023/11/23 00:19:22;;;;;;;1.30;0.85;;;18.20;59.10;;;;;;5018034;28;20029;-65
2023/11/23 00:21:48;;;;;;;1.52;0.90;;;18.20;59.10;;;;;;5018822;28;20052;-65
2023/11/23 00:24:15;;;;;;;1.10;0.80;;;18.20;59.20;;;;;;5020304;28;20113;-65
2023/11/23 00:26:40;;;;;;;1.20;0.80;;;18.20;59.10;;;;;;5019220;28;20037;-65
2023/11/23 00:29:06;;;;;;;1.33;0.88;;;18.20;59.20;;;;;;5018502;28;20029;-65
2023/11/23 00:31:32;;;;;;;1.40;0.90;;;18.20;59.20;;;;;;5019438;28;20553;-65
2023/11/23 00:33:58;;;;;;;1.17;0.80;;;18.20;59.10;;;;;;5017257;28;20916;-65
2023/11/23 00:36:23;;;;;;;1.63;0.98;;;18.20;59.10;;;;;;5000878;28;20042;-65
2023/11/23 00:38:49;;;;;;;1.42;0.90;;;18.20;59.10;;;;;;5019493;28;20104;-65
2023/11/23 00:41:15;;;;;;;1.70;1.02;;;18.20;59.20;;;;;;5016293;28;20029;-65
2023/11/23 00:43:40;;;;;;;1.20;0.90;;;18.20;59.20;;;;;;5017903;28;20079;-66
2023/11/23 00:46:06;;;;;;;1.10;0.80;;;18.20;59.10;;;;;;5019923;28;20026;-65
2023/11/23 00:48:32;;;;;;;1.52;0.90;;;18.20;59.10;;;;;;5017208;28;20045;-65
2023/11/23 00:50:57;;;;;;;1.60;0.90;;;18.20;59.10;;;;;;5020076;28;20124;-65
2023/11/23 00:53:23;;;;;;;1.60;0.98;;;18.20;59.10;;;;;;5019057;28;20041;-66
2023/11/23 00:55:49;;;;;;;1.45;1.00;;;18.20;59.10;;;;;;5017969;28;20030;-65
2023/11/23 00:58:15;;;;;;;1.45;0.85;;;18.20;59.20;;;;;;5018420;28;20087;-65
2023/11/23 01:00:40;;;;;;;1.27;0.88;;;18.20;59.20;;;;;;5018349;28;20037;-65
2023/11/23 01:03:06;;;;;;;1.30;0.90;;;18.20;59.20;;;;;;5018055;28;20738;-65
2023/11/23 01:05:32;;;;;;;1.50;0.90;;;18.20;59.10;;;;;;5017219;28;20084;-65
2023/11/23 01:07:57;;;;;;;1.58;0.98;;;18.20;59.10;;;;;;5018364;28;20060;-65
2023/11/23 01:10:24;;;;;;;1.13;0.80;;;18.20;59.20;;;;;;5018842;28;20068;-65
2023/11/23 01:12:51;;;;;;;1.02;0.80;;;18.20;59.10;;;;;;5020273;28;20025;-65
2023/11/23 01:15:17;;;;;;;1.20;0.90;;;18.20;59.10;;;;;;5019742;28;20021;-65
2023/11/23 01:17:43;;;;;;;1.73;0.98;;;18.20;59.20;;;;;;5033951;28;20512;-67
2023/11/23 01:20:09;;;;;;;1.20;0.70;;;18.20;59.20;;;;;;5012440;28;20394;-67
2023/11/23 01:22:36;;;;;;;1.05;0.80;;;18.20;59.10;;;;;;5021018;28;20477;-67
2023/11/23 01:25:02;;;;;;;1.63;0.90;;;18.20;59.20;;;;;;5030482;28;20075;-67
2023/11/23 01:27:31;;;;;;;1.15;0.90;;;18.20;59.10;;;;;;5016785;28;20380;-69
2023/11/23 01:29:56;;;;;;;1.38;0.88;;;18.20;59.10;;;;;;5017309;28;20026;-69
2023/11/23 01:32:22;;;;;;;1.40;0.82;;;18.20;59.10;;;;;;5018882;28;20037;-69
2023/11/23 01:34:47;;;;;;;1.42;0.90;;;18.20;59.10;;;;;;5017639;28;20591;-69
2023/11/23 01:37:13;;;;;;;1.67;0.93;;;18.20;59.10;;;;;;5018977;28;20021;-69
2023/11/23 01:39:38;;;;;;;1.15;0.80;;;18.20;59.20;;;;;;5017104;28;20067;-69
2023/11/23 01:42:04;;;;;;;1.40;0.90;;;18.20;59.10;;;;;;5018868;28;20032;-69
2023/11/23 01:44:30;;;;;;;0.90;0.70;;;18.20;59.10;;;;;;5019538;28;20030;-69
2023/11/23 01:46:56;;;;;;;1.58;1.00;;;18.20;59.10;;;;;;5019609;28;20045;-65
2023/11/23 01:49:22;;;;;;;1.00;0.90;;;18.20;59.20;;;;;;5018108;28;20049;-65
2023/11/23 01:51:48;;;;;;;1.20;0.90;;;18.20;59.10;;;;;;5018018;28;20022;-65
2023/11/23 01:54:14;;;;;;;1.27;0.80;;;18.10;59.10;;;;;;5017827;28;20033;-65
2023/11/23 01:56:42;;;;;;;0.88;0.80;;;18.20;59.10;;;;;;5017712;28;20084;-65
2023/11/23 01:59:08;;;;;;;1.80;1.10;;;18.10;59.10;;;;;;5018834;28;20022;-66
2023/11/23 02:01:34;;;;;;;1.02;0.80;;;18.20;59.10;;;;;;5019184;28;20109;-65
2023/11/23 02:04:00;;;;;;;2.25;1.05;;;18.20;59.10;;;;;;5015493;28;20029;-65
2023/11/23 02:06:25;;;;;;;1.25;0.80;;;18.10;59.10;;;;;;5017773;28;20025;-65
2023/11/23 02:08:51;;;;;;;1.27;1.00;;;18.10;59.10;;;;;;5017454;28;20046;-65
2023/11/23 02:11:17;;;;;;;0.93;0.75;;;18.10;59.10;;;;;;5017358;28;20026;-66
2023/11/23 02:13:43;;;;;;;1.35;0.90;;;18.20;59.10;;;;;;5018167;28;20021;-65
2023/11/23 02:16:09;;;;;;;1.25;0.93;;;18.10;59.10;;;;;;5018240;28;20056;-65
2023/11/23 02:18:36;;;;;;;1.20;0.80;;;18.10;59.10;;;;;;5017371;28;20025;-65
2023/11/23 02:21:02;;;;;;;1.38;0.90;;;18.10;59.10;;;;;;5014704;28;20026;-65
2023/11/23 02:23:28;;;;;;;0.95;0.85;;;18.10;59.10;;;;;;5018556;28;20044;-65
2023/11/23 02:25:53;;;;;;;1.17;0.85;;;18.10;59.10;;;;;;5018175;28;20059;-65
2023/11/23 02:28:19;;;;;;;1.30;0.80;;;18.10;59.10;;;;;;5018429;28;20494;-69
2023/11/23 02:30:44;;;;;;;1.10;0.90;;;18.10;59.10;;;;;;5016418;28;20030;-69
2023/11/23 02:33:10;;;;;;;1.30;0.90;;;18.10;59.10;;;;;;5019463;28;20135;-69
2023/11/23 02:35:36;;;;;;;1.30;0.90;;;18.10;59.10;;;;;;5016709;28;20393;-69
2023/11/23 02:38:02;;;;;;;1.33;0.85;;;18.10;59.10;;;;;;5016265;28;20026;-67
2023/11/23 02:40:28;;;;;;;1.40;0.90;;;18.10;59.10;;;;;;5020656;28;20903;-67
2023/11/23 02:42:53;;;;;;;0.80;0.70;;;18.10;59.10;;;;;;5023992;28;20072;-67
2023/11/23 02:45:19;;;;;;;0.80;0.70;;;18.10;59.10;;;;;;5037555;28;20052;-67
2023/11/23 02:47:45;;;;;;;0.98;0.77;;;18.10;59.10;;;;;;5023606;28;20060;-67
2023/11/23 02:50:11;;;;;;;1.10;0.80;;;18.10;59.10;;;;;;5001742;28;20014;-67
2023/11/23 02:52:37;;;;;;;1.00;0.80;;;18.10;59.10;;;;;;5023422;28;20022;-67
2023/11/23 02:55:03;;;;;;;1.27;0.88;;;18.10;59.10;;;;;;5022612;28;20481;-67
2023/11/23 02:57:29;;;;;;;1.17;0.80;;;18.10;59.10;;;;;;5020625;28;20026;-66
2023/11/23 02:59:55;;;;;;;1.20;0.80;;;18.10;59.10;;;;;;5021210;28;20087;-66
2023/11/23 03:02:21;;;;;;;1.45;0.90;;;18.10;59.10;;;;;;5020480;28;20053;-66
2023/11/23 03:04:47;;;;;;;1.45;0.90;;;18.10;59.10;;;;;;5017818;28;20029;-67
2023/11/23 03:07:12;;;;;;;0.90;0.80;;;18.10;59.10;;;;;;5019874;28;20028;-67
2023/11/23 03:09:38;;;;;;;1.02;0.80;;;18.10;59.10;;;;;;5021575;28;20473;-66
2023/11/23 03:12:04;;;;;;;1.13;0.80;;;18.10;59.10;;;;;;5018980;28;20117;-66
2023/11/23 03:14:29;;;;;;;1.20;0.88;;;18.10;59.10;;;;;;5020949;28;20112;-67
2023/11/23 03:16:55;;;;;;;1.67;0.90;;;18.10;59.10;;;;;;5021216;28;20110;-66
2023/11/23 03:19:21;;;;;;;1.13;0.70;;;18.00;59.00;;;;;;5017874;28;20489;-66
2023/11/23 03:21:46;;;;;;;1.13;0.80;;;18.10;59.10;;;;;;5021919;28;20060;-66
2023/11/23 03:24:12;;;;;;;1.05;0.80;;;18.10;59.10;;;;;;5020444;28;20461;-66
2023/11/23 03:26:38;;;;;;;0.95;0.77;;;18.10;59.10;;;;;;5019788;28;20021;-66
2023/11/23 03:29:03;;;;;;;0.93;0.70;;;18.10;59.10;;;;;;4985918;28;20434;-66
2023/11/23 03:31:29;;;;;;;1.00;0.90;;;18.10;59.10;;;;;;5020623;28;20032;-66
2023/11/23 03:33:54;;;;;;;1.15;0.90;;;18.10;59.10;;;;;;5020357;28;20029;-66
2023/11/23 03:36:20;;;;;;;0.82;0.80;;;18.10;59.10;;;;;;5019396;28;20037;-66
2023/11/23 03:38:46;;;;;;;1.40;0.90;;;18.10;59.10;;;;;;5023479;28;20049;-66
2023/11/23 03:41:12;;;;;;;1.13;0.90;;;18.10;59.10;;;;;;5021161;28;20029;-65
2023/11/23 03:43:38;;;;;;;1.17;0.93;;;18.00;59.00;;;;;;5020038;28;20594;-65
2023/11/23 03:46:03;;;;;;;1.33;0.80;;;18.00;59.00;;;;;;5020856;28;20025;-66
2023/11/23 03:48:29;;;;;;;0.98;0.70;;;18.00;59.00;;;;;;5020100;28;20112;-65
2023/11/23 03:50:55;;;;;;;1.65;1.05;;;18.00;59.50;;;;;;5018818;28;20030;-66
2023/11/23 03:53:20;;;;;;;1.15;0.90;;;18.00;59.10;;;;;;5021240;28;20042;-65
2023/11/23 03:55:46;;;;;;;1.08;0.80;;;18.00;59.10;;;;;;5003374;28;20492;-66
2023/11/23 03:58:12;;;;;;;1.08;0.82;;;18.00;59.10;;;;;;5021207;28;20036;-66
2023/11/23 04:00:38;;;;;;;0.95;0.82;;;18.00;59.10;;;;;;5018778;28;20401;-65
2023/11/23 04:03:05;;;;;;;1.27;0.80;;;18.00;59.10;;;;;;5020042;28;20462;-65
2023/11/23 04:05:30;;;;;;;1.05;0.77;;;18.00;59.00;;;;;;5018781;28;20014;-66
2023/11/23 04:07:56;;;;;;;1.10;0.80;;;18.00;59.00;;;;;;5019567;28;20022;-66
2023/11/23 04:10:22;;;;;;;0.77;0.60;;;18.00;59.10;;;;;;5017527;28;20469;-66
2023/11/23 04:12:47;;;;;;;1.25;0.80;;;18.00;59.00;;;;;;5019363;28;20045;-65
2023/11/23 04:15:13;;;;;;;1.40;0.90;;;18.00;59.10;;;;;;5020143;28;20030;-65
2023/11/23 04:17:39;;;;;;;1.05;0.75;;;18.00;59.10;;;;;;5033100;28;20128;-65
2023/11/23 04:20:05;;;;;;;1.13;0.80;;;18.00;59.10;;;;;;5017774;28;20929;-65
2023/11/23 04:22:31;;;;;;;1.27;0.90;;;18.00;59.10;;;;;;5034929;28;20025;-65
2023/11/23 04:24:57;;;;;;;1.15;0.88;;;18.00;59.10;;;;;;5018887;28;20548;-65
2023/11/23 04:27:23;;;;;;;1.33;0.80;;;18.00;59.10;;;;;;5017840;28;20382;-65
2023/11/23 04:29:50;;;;;;;1.15;0.80;;;18.00;59.10;;;;;;5018108;28;20018;-65
2023/11/23 04:32:16;;;;;;;0.98;0.80;;;18.00;59.00;;;;;;5020513;28;20025;-65
2023/11/23 04:34:42;;;;;;;0.93;0.80;;;18.00;59.00;;;;;;5003289;28;20513;-65
2023/11/23 04:37:08;;;;;;;1.08;0.80;;;18.00;59.00;;;;;;5019488;28;20042;-65
2023/11/23 04:39:34;;;;;;;1.25;0.88;;;18.00;59.10;;;;;;5017875;28;20034;-65
2023/11/23 04:41:59;;;;;;;1.23;0.90;;;18.00;59.00;;;;;;5018209;28;20025;-65
2023/11/23 04:44:25;;;;;;;0.88;0.80;;;18.00;59.10;;;;;;5020155;28;20014;-65
2023/11/23 04:46:51;;;;;;;1.20;0.80;;;18.00;59.10;;;;;;5015138;28;20033;-67
2023/11/23 04:49:16;;;;;;;1.10;0.85;;;18.00;59.10;;;;;;5018573;28;20064;-66
2023/11/23 04:51:42;;;;;;;1.20;0.73;;;18.00;59.10;;;;;;5016552;28;20103;-66
2023/11/23 04:54:08;;;;;;;1.25;0.80;;;18.00;59.10;;;;;;5020544;28;20041;-67
2023/11/23 04:56:34;;;;;;;0.85;0.70;;;18.00;59.10;;;;;;5019439;28;20059;-67
2023/11/23 04:59:02;;;;;;;1.40;0.80;;;18.00;59.10;;;;;;5017927;28;20465;-65
2023/11/23 05:01:28;;;;;;;1.33;0.95;;;18.00;59.10;;;;;;5017177;28;20406;-65
2023/11/23 05:03:54;;;;;;;1.38;0.90;;;18.00;59.10;;;;;;5016080;28;20025;-65
2023/11/23 05:06:20;;;;;;;1.35;0.93;;;18.00;59.10;;;;;;5014545;28;20542;-67
2023/11/23 05:08:46;;;;;;;1.23;0.90;;;18.00;59.10;;;;;;5019297;28;20071;-66
2023/11/23 05:11:12;;;;;;;0.93;0.80;;;17.90;59.00;;;;;;5016982;28;20018;-65
2023/11/23 05:13:38;;;;;;;1.15;0.90;;;18.00;59.10;;;;;;4997792;28;20389;-65
2023/11/23 05:16:05;;;;;;;1.67;0.88;;;17.90;59.00;;;;;;5019634;28;20052;-66
2023/11/23 05:18:31;;;;;;;1.00;0.80;;;17.90;59.00;;;;;;5003295;28;20485;-67
2023/11/23 05:20:57;;;;;;;1.08;0.80;;;17.90;59.00;;;;;;5016848;28;20045;-67
2023/11/23 05:23:22;;;;;;;1.20;0.80;;;17.90;59.00;;;;;;5017878;28;20422;-67
2023/11/23 05:25:49;;;;;;;1.10;0.80;;;17.90;59.00;;;;;;5018582;28;20409;-67
2023/11/23 05:28:15;;;;;;;1.25;0.80;;;17.90;59.00;;;;;;5017597;28;20389;-67
2023/11/23 05:30:41;;;;;;;1.25;0.90;;;17.90;59.00;;;;;;5021063;28;20025;-67
2023/11/23 05:33:06;;;;;;;1.35;0.90;;;17.90;59.50;;;;;;5015134;28;20025;-66
2023/11/23 05:35:32;;;;;;;1.10;0.85;;;17.90;59.00;;;;;;5015040;28;20037;-67
2023/11/23 05:37:58;;;;;;;1.23;0.90;;;17.90;59.00;;;;;;5019133;28;20026;-67
2023/11/23 05:40:23;;;;;;;0.88;0.80;;;17.90;59.00;;;;;;5033528;28;20029;-67
2023/11/23 05:42:50;;;;;;;1.35;0.90;;;17.90;59.00;;;;;;5015923;28;20029;-67
2023/11/23 05:45:16;;;;;;;1.55;0.90;;;17.90;59.00;;;;;;5018732;28;20029;-67
2023/11/23 05:47:42;;;;;;;1.45;0.75;;;17.90;59.00;;;;;;5019204;28;20029;-67
2023/11/23 05:50:08;;;;;;;0.95;0.80;;;17.90;59.10;;;;;;5016260;28;20459;-66
2023/11/23 05:52:34;;;;;;;1.05;0.70;;;17.90;59.10;;;;;;5017536;28;20065;-67
2023/11/23 05:55:00;;;;;;;1.23;0.80;;;17.90;59.00;;;;;;5018203;28;20060;-66
2023/11/23 05:57:25;;;;;;;1.10;0.80;;;17.90;59.00;;;;;;5018608;28;20100;-67
2023/11/23 05:59:51;;;;;;;0.85;0.70;;;17.90;59.10;;;;;;5017346;28;20026;-67
2023/11/23 06:02:18;;;;;;;1.00;0.80;;;17.90;59.60;;;;;;5017799;28;20041;-67
2023/11/23 06:04:45;;;;;;;1.00;0.80;;;17.90;59.10;;;;;;5017545;28;20026;-67
2023/11/23 06:07:10;;;;;;;1.00;0.70;;;17.90;59.00;;;;;;5016834;28;20018;-67
2023/11/23 06:09:39;;;;;;;1.10;0.80;;;17.90;59.10;;;;;;5018191;28;20116;-67
2023/11/23 06:12:05;;;;;;;1.33;0.88;;;17.80;59.00;;;;;;4984087;28;20102;-67
2023/11/23 06:14:32;;;;;;;1.13;0.85;;;17.90;59.10;;;;;;5022815;28;20036;-67
2023/11/23 06:16:58;;;;;;;1.20;0.90;;;17.90;59.10;;;;;;5022048;28;20037;-67
2023/11/23 06:19:23;;;;;;;1.30;0.90;;;17.90;59.10;;;;;;5022069;28;20025;-67
2023/11/23 06:21:49;;;;;;;1.23;0.85;;;17.90;59.10;;;;;;5020825;28;20108;-67
2023/11/23 06:24:16;;;;;;;0.95;0.80;;;17.90;59.10;;;;;;5020438;28;20484;-67
2023/11/23 06:26:41;;;;;;;1.45;0.80;;;17.90;59.10;;;;;;5020340;28;20595;-67
2023/11/23 06:29:07;;;;;;;1.13;0.88;;;17.90;59.10;;;;;;5019978;28;20021;-70
2023/11/23 06:31:34;;;;;;;0.85;0.70;;;17.90;59.10;;;;;;5021810;28;20025;-70
2023/11/23 06:34:00;;;;;;;1.20;0.80;;;17.90;59.10;;;;;;5019432;28;20343;-71
2023/11/23 06:36:25;;;;;;;1.25;0.82;;;17.90;59.10;;;;;;5021420;28;20079;-70
2023/11/23 06:38:51;;;;;;;1.20;0.80;;;17.90;59.10;;;;;;5021090;28;20100;-70
2023/11/23 06:41:20;;;;;;;1.38;0.80;;;17.90;59.00;;;;;;5023581;28;20029;-71
2023/11/23 06:43:48;;;;;;;0.82;0.70;;;17.90;59.10;;;;;;5020356;28;20075;-70
2023/11/23 06:46:15;;;;;;;1.33;0.90;;;17.90;59.00;;;;;;5018596;28;20486;-70
2023/11/23 06:48:41;;;;;;;1.40;0.85;;;17.80;59.00;;;;;;5018861;28;20021;-70
2023/11/23 06:51:08;;;;;;;1.27;0.80;;;17.90;59.10;;;;;;5020663;28;20036;-70
2023/11/23 06:53:35;;;;;;;1.20;0.88;;;17.90;59.10;;;;;;5021714;28;20030;-70
2023/11/23 06:56:02;;;;;;;1.05;0.80;;;17.80;59.00;;;;;;5022735;28;20025;-70
2023/11/23 06:58:28;;;;;;;1.00;0.80;;;17.90;59.00;;;;;;5035953;28;20102;-70
2023/11/23 07:00:54;;;;;;;1.02;0.90;;;17.90;59.10;;;;;;5021098;28;20489;-70
2023/11/23 07:03:22;;;;;;;1.05;0.77;;;17.90;59.00;;;;;;5037049;28;20088;-70
2023/11/23 07:05:48;;;;;;;1.02;0.70;;;17.90;59.10;;;;;;5019022;28;20381;-71
2023/11/23 07:08:14;;;;;;;1.20;0.90;;;17.90;59.10;;;;;;5019549;28;20034;-67
2023/11/23 07:10:41;;;;;;;1.13;0.80;;;17.90;59.00;;;;;;5002863;28;20034;-67
2023/11/23 07:13:07;;;;;;;0.80;0.70;;;17.80;59.00;;;;;;5021592;28;20033;-67
2023/11/23 07:15:33;;;;;;;1.00;0.80;;;17.80;59.00;;;;;;5019542;28;20034;-67
2023/11/23 07:17:59;;;;;;;1.33;0.90;;;17.80;59.00;;;;;;5021172;28;20982;-67
2023/11/23 07:20:26;;;;;;;1.02;0.70;;;17.80;58.90;;;;;;5021416;28;20041;-67
2023/11/23 07:22:54;;;;;;;0.82;0.70;;;17.90;59.00;;;;;;5011818;28;20033;-67
2023/11/23 07:25:20;;;;;;;1.05;0.82;;;17.90;59.00;;;;;;5021107;28;20034;-67
2023/11/23 07:27:45;;;;;;;0.80;0.70;;;17.80;58.90;;;;;;5021164;28;20402;-68
2023/11/23 07:30:11;;;;;;;1.20;0.80;;;17.80;58.90;;;;;;5021076;28;20030;-67
2023/11/23 07:32:37;;;;;;;1.10;0.80;;;17.80;58.90;;;;;;5021867;28;20033;-67
2023/11/23 07:35:03;;;;;;;1.40;1.00;;;17.80;58.90;;;;;;5002530;28;20029;-66
2023/11/23 07:37:30;;;;;;;0.77;0.70;;;17.90;59.00;;;;;;5017928;28;20040;-68
2023/11/23 07:39:56;;;;;;;1.00;0.70;;;17.80;59.00;;;;;;5021227;28;20068;-68
2023/11/23 07:42:23;;;;;;;0.93;0.77;;;17.80;59.00;;;;;;5019214;28;20014;-68
2023/11/23 07:44:54;;;;;;;1.30;0.85;;;17.80;58.90;;;;;;5020603;28;20123;-68
2023/11/23 07:47:19;;;;;;;0.80;0.70;;;17.80;58.90;;;;;;5016916;28;20406;-68
2023/11/23 07:49:45;;;;;;;0.90;0.75;;;17.80;58.90;;;;;;5035626;28;20025;-68
2023/11/23 07:52:13;;;;;;;1.55;0.82;;;17.80;58.90;;;;;;5002682;28;20029;-68
2023/11/23 07:54:38;;;;;;;0.75;0.70;;;17.80;58.90;;;;;;5018671;28;20052;-68
2023/11/23 07:57:04;;;;;;;1.13;0.90;;;17.80;58.90;;;;;;5021044;28;20069;-68
2023/11/23 07:59:30;;;;;;;0.82;0.70;;;17.80;58.90;;;;;;5025892;28;20021;-73
2023/11/23 08:01:57;;;;;;;1.10;1.00;;;17.80;58.90;;;;;;5019538;28;20377;-68
2023/11/23 08:04:24;;;;;;;1.00;0.80;;;17.80;58.90;;;;;;5016318;28;20018;-68
2023/11/23 08:06:49;;;;;;;1.08;0.70;;;17.80;58.90;;;;;;5009091;28;20026;-68
2023/11/23 08:09:15;;;;;;;1.20;0.80;;;17.80;58.90;;;;;;5019581;28;20069;-68
2023/11/23 08:11:41;;;;;;;1.80;0.80;;;17.80;58.90;;;;;;5021212;28;20481;-68
2023/11/23 08:14:07;;;;;;;1.13;0.70;;;17.80;58.90;;;;;;5021934;28;20032;-68
2023/11/23 08:16:32;;;;;;;1.30;0.90;;;17.80;59.00;;;;;;5021500;28;20505;-68
2023/11/23 08:18:58;;;;;;;0.90;0.70;;;17.80;59.50;;;;;;5021001;28;20026;-69
2023/11/23 08:21:23;;;;;;;1.10;0.95;;;17.80;59.00;;;;;;5020113;28;20029;-69
2023/11/23 08:23:50;;;;;;;1.02;0.80;;;17.80;59.50;;;;;;5016412;28;20497;-69
2023/11/23 08:26:16;;;;;;;0.75;0.60;;;17.80;59.00;;;;;;5020427;28;20088;-69
2023/11/23 08:28:42;;;;;;;1.08;0.73;;;17.80;59.00;;;;;;5018970;28;20022;-68
2023/11/23 08:31:07;;;;;;;1.23;0.70;;;17.80;59.00;;;;;;5019192;28;20037;-68
2023/11/23 08:33:33;;;;;;;0.88;0.77;;;17.80;59.00;;;;;;5021485;28;20080;-68
2023/11/23 08:35:59;;;;;;;0.70;0.68;;;17.80;59.00;;;;;;5018740;28;20091;-68
2023/11/23 08:38:27;;;;;;;0.77;0.70;;;17.80;59.10;;;;;;5017245;28;20160;-68
2023/11/23 08:40:53;;;;;;;1.20;0.80;;;17.80;59.10;;;;;;5021319;28;20033;-68
2023/11/23 08:43:18;;;;;;;1.15;0.82;;;17.80;59.00;;;;;;5021168;28;20041;-68
2023/11/23 08:45:44;;;;;;;1.17;0.70;;;17.80;59.10;;;;;;5017630;28;20458;-68
2023/11/23 08:48:10;;;;;;;1.08;0.70;;;17.80;59.10;;;;;;5019021;28;20133;-70
2023/11/23 08:50:35;;;;;;;1.02;0.80;;;17.80;59.10;;;;;;5020166;28;20037;-70
2023/11/23 08:53:01;;;;;;;0.70;0.60;;;17.70;59.00;;;;;;5016479;28;20100;-69
2023/11/23 08:55:28;;;;;;;1.23;0.75;;;17.80;59.10;;;;;;5019038;28;20031;-70
2023/11/23 08:57:53;;;;;;;1.35;0.80;;;17.80;59.10;;;;;;5020074;28;20892;-69
2023/11/23 09:00:27;;;;;;;0.98;0.70;;;17.80;59.10;;;;;;5020900;28;20037;-70
2023/11/23 09:02:54;;;;;;;0.80;0.80;;;17.80;59.10;;;;;;5019820;28;20418;-69
2023/11/23 09:05:21;;;;;;;1.35;0.82;;;17.80;59.10;;;;;;5019544;28;20489;-69
2023/11/23 09:07:48;;;;;;;0.73;0.60;;;17.80;59.10;;;;;;5018007;28;20106;-69
2023/11/23 09:10:14;;;;;;;0.70;0.68;;;17.80;59.10;;;;;;5018139;28;20029;-69
2023/11/23 09:12:40;;;;;;;1.00;0.70;;;17.70;59.10;;;;;;5001972;28;20033;-69
2023/11/23 09:15:07;;;;;;;0.73;0.70;;;17.80;59.10;;;;;;5019326;28;20507;-69
2023/11/23 09:17:34;;;;;;;0.90;0.70;;;17.80;59.10;;;;;;5034976;28;20478;-69
2023/11/23 09:19:59;;;;;;;1.00;0.80;;;17.70;59.10;;;;;;5020378;28;20085;-69
2023/11/23 09:22:25;;;;;;;1.00;0.80;;;17.70;59.10;;;;;;5015387;28;20049;-69
2023/11/23 09:24:51;;;;;;;0.90;0.70;;;17.70;59.10;;;;;;5018489;28;20448;-69
2023/11/23 09:27:17;;;;;;;0.80;0.65;;;17.80;59.10;;;;;;5017211;28;20060;-69
2023/11/23 09:29:43;;;;;;;1.05;0.70;;;17.70;59.10;;;;;;5016428;28;20924;-67
2023/11/23 09:32:09;;;;;;;1.17;0.80;;;17.70;59.60;;;;;;5016345;28;20029;-67
2023/11/23 09:34:35;;;;;;;1.02;0.80;;;17.70;59.20;;;;;;5019248;28;20075;-67
2023/11/23 09:37:01;;;;;;;0.80;0.70;;;17.70;59.10;;;;;;5018593;28;20029;-67
2023/11/23 09:39:27;;;;;;;1.25;0.93;;;17.70;59.10;;;;;;5016092;28;20121;-68
2023/11/23 09:41:57;;;;;;;0.80;0.63;;;17.70;59.10;;;;;;5018468;28;20120;-69
2023/11/23 09:44:26;;;;;;;0.98;0.75;;;17.70;59.20;;;;;;5019205;28;20021;-69
2023/11/23 09:46:52;;;;;;;1.08;0.80;;;17.70;59.20;;;;;;5018429;28;20297;-69
2023/11/23 09:49:19;;;;;;;0.90;0.70;;;17.70;59.20;;;;;;5018483;28;20052;-69
2023/11/23 09:51:47;;;;;;;0.80;0.68;;;17.70;59.20;;;;;;5022128;28;20048;-69
2023/11/23 09:54:18;;;;;;;0.90;0.70;;;17.70;59.20;;;;;;5022868;28;20026;-69
2023/11/23 09:56:44;;;;;;;0.73;0.60;;;17.70;59.20;;;;;;5024504;28;20029;-68
2023/11/23 09:59:09;;;;;;;0.90;0.80;;;17.70;59.20;;;;;;5025300;28;20036;-67
2023/11/23 10:01:43;;;;;;;0.70;0.70;;;17.70;59.20;;;;;;5026851;28;20121;-67
2023/11/23 10:04:08;;;;;;;0.95;0.80;;;17.70;59.20;;;;;;5024686;28;20131;-67
2023/11/23 10:06:34;;;;;;;0.85;0.77;;;17.70;59.20;;;;;;5020452;28;20121;-67
2023/11/23 10:09:00;;;;;;;1.15;0.82;;;17.70;59.20;;;;;;5025151;28;20021;-67
2023/11/23 10:11:29;;;;;;;0.73;0.70;;;17.70;59.20;;;;;;5022157;28;20026;-67
2023/11/23 10:13:54;;;;;;;0.77;0.70;;;17.70;59.20;;;;;;5026841;28;20071;-67
2023/11/23 10:16:20;;;;;;;0.88;0.70;;;17.70;59.20;;;;;;5026567;28;20030;-67
2023/11/23 10:18:46;;;;;;;0.70;0.70;;;17.70;59.30;;;;;;5023198;28;20026;-68
2023/11/23 10:21:12;;;;;;;0.82;0.70;;;17.70;59.20;;;;;;5024093;28;20385;-67
2023/11/23 10:23:43;;;;;;;1.02;0.70;;;17.70;59.30;;;;;;5023564;28;20022;-67
2023/11/23 10:26:09;;;;;;;0.80;0.70;;;17.70;59.30;;;;;;5024108;28;20489;-67
2023/11/23 10:28:38;;;;;;;1.10;0.70;;;17.70;59.30;;;;;;5024254;28;20109;-67
2023/11/23 10:31:05;;;;;;;0.88;0.70;;;17.70;59.30;;;;;;5026789;28;20100;-68
2023/11/23 10:33:41;;;;;;;0.77;0.70;;;17.70;59.30;;;;;;5026495;28;20405;-67
2023/11/23 10:36:09;;;;;;;0.70;0.70;;;17.70;59.30;;;;;;5025599;28;20045;-67
2023/11/23 10:38:43;;;;;;;0.80;0.70;;;17.70;59.30;;;;;;5022698;28;20125;-65
2023/11/23 10:41:09;;;;;;;0.65;0.60;;;17.70;59.30;;;;;;5024529;28;20041;-65
2023/11/23 10:43:36;;;;;;;0.95;0.70;;;17.70;59.30;;;;;;5025363;28;20526;-65
2023/11/23 10:46:11;;;;;;;1.00;0.73;;;17.70;59.30;;;;;;5024529;28;20473;-65
2023/11/23 10:48:38;;;;;;;0.98;0.70;;;17.70;59.30;;;;;;5022312;28;20029;-69
2023/11/23 10:51:05;;;;;;;0.63;0.60;;;17.70;59.30;;;;;;5023005;28;20462;-68
2023/11/23 10:53:31;;;;;;;0.98;0.70;;;17.70;59.30;;;;;;5023178;28;20028;-69
2023/11/23 10:56:13;;;;;;;0.90;0.70;;;17.70;59.30;;;;;;5023422;28;20461;-69
2023/11/23 10:58:41;;;;;;;0.77;0.70;;;17.70;59.30;;;;;;5023928;28;20032;-69
2023/11/23 11:01:10;;;;;;;0.68;0.63;;;17.70;59.30;;;;;;5019511;28;20164;-69
2023/11/23 11:03:38;;;;;;;0.57;0.57;;;17.70;59.30;;;;;;5020641;28;20030;-69
2023/11/23 11:06:13;;;;;;;0.90;0.70;;;17.70;59.40;;;;;;5021598;28;20046;-68
2023/11/23 11:08:47;;;;;;;0.80;0.70;;;17.70;59.40;;;;;;5019932;28;20097;-67
2023/11/23 11:11:25;;;;;;;0.75;0.60;;;17.70;59.40;;;;;;5003855;28;20028;-67
2023/11/23 11:14:01;;;;;;;0.90;0.70;;;17.70;59.40;;;;;;5017236;28;20751;-67
2023/11/23 11:16:39;;;;;;;0.82;0.70;;;17.70;59.40;;;;;;5022389;28;20030;-67
2023/11/23 11:19:06;;;;;;;0.60;0.60;;;17.70;59.40;;;;;;5018390;28;20021;-67
2023/11/23 11:21:48;;;;;;;0.85;0.70;;;17.70;59.40;;;;;;5021368;28;20026;-67
2023/11/23 11:24:23;;;;;;;0.98;0.80;;;17.70;59.40;;;;;;5018680;28;20026;-67
2023/11/23 11:26:49;;;;;;;1.10;0.82;;;17.70;59.40;;;;;;5017342;28;20018;-67
2023/11/23 11:29:16;;;;;;;1.00;0.75;;;17.70;59.40;;;;;;5020876;28;20022;-67
2023/11/23 11:31:44;;;;;;;1.00;0.70;;;17.70;59.40;;;;;;5020254;28;20447;-67
2023/11/23 11:34:19;;;;;;;0.75;0.60;;;17.70;59.40;;;;;;5021138;28;20022;-67
2023/11/23 11:36:51;;;;;;;0.65;0.65;;;17.70;59.40;;;;;;5019527;28;20017;-67
2023/11/23 11:39:16;;;;;;;0.90;0.70;;;17.70;59.40;;;;;;5032418;28;20017;-67
2023/11/23 11:41:45;;;;;;;0.80;0.70;;;17.70;59.40;;;;;;5020616;28;20018;-67
2023/11/23 11:44:13;;;;;;;1.05;0.70;;;17.70;59.40;;;;;;5017492;28;20425;-67
2023/11/23 11:46:38;;;;;;;0.90;0.75;;;17.70;59.50;;;;;;5017957;28;20032;-67
2023/11/23 11:49:04;;;;;;;1.00;0.57;;;17.70;59.40;;;;;;5017029;28;20104;-68
2023/11/23 11:51:31;;;;;;;0.70;0.70;;;17.70;59.40;;;;;;5017138;28;20109;-69
2023/11/23 11:53:59;;;;;;;1.10;0.70;;;17.70;59.90;;;;;;5017976;28;20117;-68
2023/11/23 11:56:25;;;;;;;0.80;0.70;;;17.70;59.40;;;;;;5017989;28;20097;-69
2023/11/23 11:58:51;;;;;;;1.08;0.70;;;17.70;59.50;;;;;;5013485;28;20034;-65
2023/11/23 12:01:18;;;;;;;0.98;0.70;;;17.70;59.50;;;;;;5020699;28;20495;-64
2023/11/23 12:03:47;;;;;;;0.90;0.60;;;17.70;59.50;;;;;;5019380;28;20117;-65
2023/11/23 12:06:13;;;;;;;0.77;0.70;;;17.70;59.50;;;;;;5020754;28;20371;-65
2023/11/23 12:08:39;;;;;;;0.80;0.60;;;17.70;60.00;;;;;;5019560;28;20026;-65
2023/11/23 12:11:06;;;;;;;0.70;0.60;;;17.70;59.50;;;;;;5020482;28;20033;-64
2023/11/23 12:13:35;;;;;;;0.82;0.60;;;17.70;59.50;;;;;;5020557;28;20104;-65
2023/11/23 12:16:01;;;;;;;0.80;0.70;;;17.70;59.50;;;;;;5019199;28;20070;-64
2023/11/23 12:18:38;;;;;;;0.68;0.68;;;17.70;60.00;;;;;;5019118;28;20030;-64
2023/11/23 12:21:14;;;;;;;0.88;0.77;;;17.70;59.50;;;;;;5020215;28;20473;-64
2023/11/23 12:23:44;;;;;;;1.05;0.80;;;17.70;59.50;;;;;;5016482;28;20457;-65
2023/11/23 12:26:14;;;;;;;0.70;0.60;;;17.70;59.50;;;;;;5021605;28;20446;-64
2023/11/23 12:28:40;;;;;;;0.82;0.70;;;17.70;59.50;;;;;;5017293;28;20021;-65
2023/11/23 12:31:07;;;;;;;0.60;0.60;;;17.70;59.50;;;;;;5020226;28;20405;-64
2023/11/23 12:33:33;;;;;;;0.75;0.70;;;17.70;59.50;;;;;;5001469;28;20065;-64
2023/11/23 12:36:00;;;;;;;0.60;0.60;;;17.70;59.50;;;;;;5020268;28;20083;-65
2023/11/23 12:38:26;;;;;;;0.80;0.77;;;17.70;59.50;;;;;;5017014;28;20612;-65
2023/11/23 12:40:51;;;;;;;0.98;0.88;;;17.70;59.50;;;;;;5033815;28;20124;-65
2023/11/23 12:43:17;;;;;;;0.90;0.80;;;17.70;59.50;;;;;;5019589;28;20031;-65
2023/11/23 12:45:43;;;;;;;0.65;0.55;;;17.70;59.50;;;;;;5018961;28;20033;-65